createdAt,value
2019-05-29T07:50:31.880Z,8.83
2019-05-29T07:52:11.346Z,8.57
2019-05-29T07:53:52.223Z,9.96
2019-05-29T07:55:32.047Z,9.1
2019-05-29T07:57:11.562Z,8.69
2019-05-29T07:59:05.382Z,8.85
2019-05-29T08:01:14.818Z,9.04
2019-05-29T08:02:59.915Z,9.18
2019-05-29T08:06:25.410Z,10.49
2019-05-29T08:08:04.824Z,10.19
2019-05-29T08:09:45.626Z,9.23
2019-05-29T08:11:25.813Z,9.73
2019-05-29T08:13:05.268Z,9.51
2019-05-29T08:14:45.851Z,9.13
2019-05-29T08:16:25.866Z,8.57
2019-05-29T08:18:05.416Z,8.75
2019-05-29T08:20:09.149Z,8.15
2019-05-29T08:21:56.552Z,8.11
2019-05-29T08:23:36.045Z,8.09
2019-05-29T08:25:15.505Z,8.63
2019-05-29T08:26:55.019Z,8.77
2019-05-29T08:28:34.456Z,8.63
2019-05-29T08:30:14.059Z,9.28
2019-05-29T08:31:54.386Z,8.08
2019-05-29T08:33:33.740Z,7.33
2019-05-29T08:35:13.165Z,6.45
2019-05-29T08:37:09.188Z,6.03
2019-05-29T08:38:49.366Z,7.23
2019-05-29T08:40:30.948Z,6.93
2019-05-29T08:42:26.623Z,7.25
2019-05-29T08:44:06.110Z,6.84
2019-05-29T08:45:47.986Z,6.37
2019-05-29T08:47:27.780Z,5.67
2019-05-29T08:49:07.293Z,6.03
2019-05-29T08:50:47.780Z,6.38
2019-05-29T08:52:27.912Z,6.09
2019-05-29T08:54:26.199Z,6.22
2019-05-29T08:56:13.771Z,5.8
2019-05-29T08:57:54.301Z,5.46
2019-05-29T08:59:33.665Z,5.07
2019-05-29T09:01:13.085Z,5.67
2019-05-29T09:02:54.490Z,4.81
2019-05-29T09:04:34.185Z,5.23
2019-05-29T09:06:16.790Z,5.55
2019-05-29T09:07:57.741Z,5.05
2019-05-29T09:09:37.117Z,4.2
2019-05-29T09:11:16.617Z,4.37
2019-05-29T09:13:07.820Z,4.87
2019-05-29T09:14:47.347Z,4.1
2019-05-29T09:16:27.241Z,4.92
2019-05-29T09:18:06.725Z,4.58
2019-05-29T09:19:46.152Z,4.35
2019-05-29T09:21:30.012Z,4.5
2019-05-29T09:23:09.649Z,4.88
2019-05-29T09:24:50.624Z,5.35
2019-05-29T09:26:30.092Z,5.5
2019-05-29T09:28:09.463Z,4.61
2019-05-29T09:29:49.012Z,4.43
2019-05-29T09:31:28.463Z,4.61
2019-05-29T09:33:08.069Z,5.12
2019-05-29T09:34:50.929Z,5.11
2019-05-29T09:36:30.670Z,4.38
2019-05-29T09:38:12.628Z,4.06
2019-05-29T09:39:57.744Z,3.99
2019-05-29T09:41:38.520Z,3.71
2019-05-29T09:43:25.685Z,3.69
2019-05-29T09:45:08.679Z,3.92
2019-05-29T09:46:48.322Z,3.89
2019-05-29T09:48:30.635Z,4.04
2019-05-29T09:50:50.879Z,3.81
2019-05-29T09:52:37.908Z,3.94
2019-05-29T09:54:17.556Z,3.78
2019-05-29T09:56:01.012Z,3.94
2019-05-29T09:57:43.859Z,4.05
2019-05-29T09:59:23.305Z,4.42
2019-05-29T10:01:26.601Z,4.04
2019-05-29T10:03:12.838Z,3.73
2019-05-29T10:04:53.071Z,3.76
2019-05-29T10:06:35.713Z,3.66
2019-05-29T10:08:18.646Z,3.77
2019-05-29T10:10:03.461Z,4
2019-05-29T10:11:49.144Z,3.57
2019-05-29T10:13:28.458Z,4.09
2019-05-29T10:15:07.877Z,3.79
2019-05-29T10:16:47.315Z,3.93
2019-05-29T10:18:35.496Z,3.68
2019-05-29T10:20:15.019Z,3.53
2019-05-29T10:21:54.814Z,3.89
2019-05-29T10:23:37.834Z,4.29
2019-05-29T10:25:17.444Z,4.31
2019-05-29T10:31:05.005Z,3.92
2019-05-29T10:32:52.834Z,4.08
2019-05-29T10:34:32.623Z,3.55
2019-05-29T10:36:12.091Z,3.38
2019-05-29T10:37:52.965Z,3.35
2019-05-29T10:39:32.554Z,3.59
2019-05-29T10:41:12.077Z,3.18
2019-05-29T10:44:39.168Z,3.11
2019-05-29T10:47:59.374Z,3.27
2019-05-29T10:49:38.785Z,2.85
2019-05-29T10:51:18.210Z,3.16
2019-05-29T10:52:57.727Z,3.04
2019-05-29T10:54:39.185Z,3
2019-05-29T10:56:22.900Z,2.8
2019-05-29T10:58:02.320Z,2.8
2019-05-29T10:59:41.694Z,3.02
2019-05-29T11:01:22.573Z,3.21
2019-05-29T11:03:02.079Z,3.24
2019-05-29T11:04:41.511Z,3.33
2019-05-29T11:06:31.097Z,3.33
2019-05-29T11:08:10.671Z,3.33
2019-05-29T11:09:52.144Z,3.11
2019-05-29T11:11:31.686Z,2.98
2019-05-29T11:13:11.240Z,2.62
2019-05-29T11:14:54.931Z,2.7
2019-05-29T11:16:43.099Z,2.74
2019-05-29T11:18:22.532Z,2.67
2019-05-29T11:20:02.068Z,2.52
2019-05-29T11:21:41.503Z,2.58
2019-05-29T11:23:21.092Z,2.5
2019-05-29T11:25:27.527Z,2.68
2019-05-29T11:27:13.262Z,3.49
2019-05-29T11:28:54.422Z,3.07
2019-05-29T11:30:35.738Z,2.93
2019-05-29T11:34:01.084Z,3.2
2019-05-29T11:36:09.118Z,2.95
2019-05-29T11:37:58.824Z,2.97
2019-05-29T11:39:38.260Z,2.48
2019-05-29T11:41:29.507Z,2.45
2019-05-29T11:43:09.041Z,2.95
2019-05-29T11:44:48.418Z,2.47
2019-05-29T11:46:28.806Z,2.85
2019-05-29T11:48:08.902Z,3.23
2019-05-29T11:49:50.881Z,2.45
2019-05-29T11:51:31.123Z,2.33
2019-05-29T11:53:10.507Z,2.28
2019-05-29T11:54:53.440Z,2.55
2019-05-29T11:56:37.878Z,2.28
2019-05-29T12:00:23.376Z,2.13
2019-05-29T12:02:06.234Z,2.12
2019-05-29T12:06:13.293Z,2.2
2019-05-29T12:07:55.508Z,2.08
2019-05-29T12:09:37.044Z,1.92
2019-05-29T12:11:16.167Z,1.87
2019-05-29T12:15:10.786Z,1.96
2019-05-29T12:18:42.957Z,1.96
2019-05-29T12:20:31.475Z,1.74
2019-05-29T12:22:10.945Z,2.19
2019-05-29T12:23:50.322Z,1.85
2019-05-29T12:25:29.945Z,1.95
2019-05-29T12:27:09.300Z,1.82
2019-05-29T12:28:48.664Z,1.76
2019-05-29T12:30:28.125Z,2.1
2019-05-29T12:32:14.514Z,2.23
2019-05-29T12:34:20.793Z,2.19
2019-05-29T12:36:01.232Z,2.18
2019-05-29T12:37:41.237Z,2.55
2019-05-29T12:39:20.622Z,1.82
2019-05-29T12:41:01.831Z,1.9
2019-05-29T12:44:34.675Z,2.02
2019-05-29T12:46:14.237Z,2.08
2019-05-29T12:49:37.173Z,2.32
2019-05-29T12:51:16.755Z,2.05
2019-05-29T12:52:57.731Z,2.17
2019-05-29T12:54:41.742Z,2.26
2019-05-29T12:56:21.145Z,2.03
2019-05-29T12:59:47.929Z,1.82
2019-05-29T13:01:27.371Z,1.93
2019-05-29T13:03:08.517Z,1.89
2019-05-29T13:05:21.140Z,1.84
2019-05-29T13:07:06.330Z,1.93
2019-05-29T13:08:56.420Z,1.63
2019-05-29T13:10:44.091Z,1.72
2019-05-29T13:12:23.464Z,1.61
2019-05-29T13:15:43.061Z,1.47
2019-05-29T13:17:22.521Z,1.53
2019-05-29T13:19:03.445Z,1.49
2019-05-29T13:20:43.329Z,1.42
2019-05-29T13:22:22.732Z,1.48
2019-05-29T13:24:11.673Z,1.54
2019-05-29T13:25:51.205Z,1.58
2019-05-29T13:27:30.596Z,2.01
2019-05-29T13:29:10.172Z,2.02
2019-05-29T13:30:49.582Z,1.97
2019-05-29T13:32:28.504Z,1.97
2019-05-29T13:34:08.969Z,1.81
2019-05-29T13:35:48.379Z,1.76
2019-05-29T13:37:27.834Z,1.93
2019-05-29T13:39:08.156Z,1.78
2019-05-29T13:40:47.558Z,1.57
2019-05-29T13:42:26.971Z,1.38
2019-05-29T13:45:49.220Z,1.44
2019-05-29T13:47:28.665Z,1.46
2019-05-29T13:49:10.539Z,1.56
2019-05-29T13:50:51.643Z,1.53
2019-05-29T13:52:31.114Z,1.59
2019-05-29T13:54:19.845Z,1.42
2019-05-29T13:56:01.865Z,1.48
2019-05-29T13:57:43.463Z,1.56
2019-05-29T13:59:22.837Z,1.55
2019-05-29T14:01:04.380Z,1.63
2019-05-29T14:02:44.380Z,1.49
2019-05-29T14:04:23.828Z,1.39
2019-05-29T14:06:05.817Z,1.4
2019-05-29T14:07:47.346Z,1.65
2019-05-29T14:09:36.919Z,1.43
2019-05-29T14:11:16.294Z,1.38
2019-05-29T14:12:55.796Z,1.29
2019-05-29T14:14:36.856Z,1.47
2019-05-29T14:16:16.459Z,1.36
2019-05-29T14:17:55.900Z,1.45
2019-05-29T14:19:35.353Z,1.54
2019-05-29T14:21:17.001Z,1.67
2019-05-29T14:22:56.450Z,1.85
2019-05-29T14:24:35.896Z,1.61
2019-05-29T14:26:16.403Z,1.54
2019-05-29T14:27:56.840Z,1.74
2019-05-29T14:29:36.488Z,1.62
2019-05-29T14:31:15.904Z,1.46
2019-05-29T14:32:55.373Z,1.27
2019-05-29T14:34:34.799Z,1.47
2019-05-29T14:36:14.792Z,1.53
2019-05-29T14:37:54.158Z,1.5
2019-05-29T14:39:33.543Z,1.56
2019-05-29T14:41:13.729Z,1.48
2019-05-29T14:42:53.181Z,1.44
2019-05-29T14:44:33.836Z,1.43
2019-05-29T14:47:51.935Z,1.65
2019-05-29T14:49:31.387Z,1.47
2019-05-29T14:51:12.627Z,1.4
2019-05-29T14:52:52.070Z,1.38
2019-05-29T14:54:45.167Z,1.46
2019-05-29T14:58:07.790Z,1.53
2019-05-29T14:59:47.907Z,1.54
2019-05-29T15:01:26.785Z,1.53
2019-05-29T15:04:47.254Z,1.59
2019-05-29T15:06:26.809Z,1.51
2019-05-29T15:08:07.976Z,1.44
2019-05-29T15:09:47.936Z,1.67
2019-05-29T15:11:27.359Z,1.49
2019-05-29T15:13:08.862Z,1.45
2019-05-29T15:14:49.526Z,1.46
2019-05-29T15:16:28.852Z,1.55
2019-05-29T15:19:49.193Z,1.66
2019-05-29T15:21:28.680Z,1.56
2019-05-29T15:23:09.323Z,1.56
2019-05-29T15:25:23.826Z,1.51
2019-05-29T15:27:07.867Z,1.81
2019-05-29T15:28:49.140Z,1.7
2019-05-29T15:30:28.096Z,1.79
2019-05-29T15:32:08.249Z,1.77
2019-05-29T15:33:48.288Z,2.02
2019-05-29T15:35:27.748Z,1.9
2019-05-29T15:37:12.095Z,1.91
2019-05-29T15:39:03.341Z,1.96
2019-05-29T15:40:42.829Z,1.97
2019-05-29T15:42:22.266Z,1.97
2019-05-29T15:44:06.745Z,2.11
2019-05-29T15:45:49.941Z,1.95
2019-05-29T15:47:29.289Z,1.79
2019-05-29T15:49:11.084Z,2.47
2019-05-29T15:50:50.543Z,1.82
2019-05-29T15:52:29.848Z,1.88
2019-05-29T15:55:54.163Z,1.83
2019-05-29T15:57:35.971Z,1.84
2019-05-29T16:00:56.509Z,2.19
2019-05-29T16:02:35.965Z,2.15
2019-05-29T16:04:15.759Z,2
2019-05-29T16:06:02.954Z,2.17
2019-05-29T16:07:42.339Z,2.34
2019-05-29T16:09:22.127Z,1.94
2019-05-29T16:11:01.541Z,1.96
2019-05-29T16:12:42.105Z,2
2019-05-29T16:14:22.513Z,2.07
2019-05-29T16:16:01.963Z,1.86
2019-05-29T16:17:41.459Z,1.93
2019-05-29T16:19:22.554Z,1.75
2019-05-29T16:21:02.212Z,1.79
2019-05-29T16:22:41.677Z,1.94
2019-05-29T16:24:22.997Z,2.19
2019-05-29T16:26:02.691Z,2.21
2019-05-29T16:27:42.838Z,2.29
2019-05-29T16:29:24.287Z,2.13
2019-05-29T16:31:03.721Z,2.06
2019-05-29T16:32:43.349Z,2.06
2019-05-29T16:34:24.675Z,2.15
2019-05-29T16:36:04.043Z,1.99
2019-05-29T16:37:43.586Z,1.99
2019-05-29T16:39:24.642Z,2.01
2019-05-29T16:41:04.041Z,2.19
2019-05-29T16:42:43.527Z,2.11
2019-05-29T16:44:31.213Z,2.1
2019-05-29T16:46:14.079Z,2.13
2019-05-29T16:47:58.386Z,2.11
2019-05-29T16:49:37.739Z,2.24
2019-05-29T16:51:20.529Z,2.13
2019-05-29T16:53:02.298Z,2.04
2019-05-29T16:54:42.953Z,2
2019-05-29T16:56:23.292Z,2.25
2019-05-29T16:58:03.124Z,2.08
2019-05-29T16:59:42.636Z,2.16
2019-05-29T17:03:10.137Z,2.12
2019-05-29T17:04:49.574Z,2.01
2019-05-29T17:06:29.012Z,1.89
2019-05-29T17:08:08.655Z,1.86
2019-05-29T17:09:48.464Z,1.72
2019-05-29T17:11:28.385Z,1.88
2019-05-29T17:13:07.856Z,2.04
2019-05-29T17:14:47.345Z,2.16
2019-05-29T17:18:07.578Z,1.94
2019-05-29T17:19:47.247Z,2.02
2019-05-29T17:21:28.099Z,2.09
2019-05-29T17:23:07.704Z,1.93
2019-05-29T17:24:47.113Z,2.45
2019-05-29T17:26:26.710Z,2.55
2019-05-29T17:28:06.160Z,1.92
2019-05-29T17:29:45.590Z,1.75
2019-05-29T17:31:26.738Z,1.69
2019-05-29T17:33:06.101Z,1.7
2019-05-29T17:34:45.582Z,1.93
2019-05-29T17:36:31.509Z,1.71
2019-05-29T17:38:10.947Z,2.06
2019-05-29T17:39:50.378Z,1.72
2019-05-29T17:41:29.798Z,1.85
2019-05-29T17:43:11.769Z,1.71
2019-05-29T17:44:51.263Z,2.19
2019-05-29T17:46:30.684Z,1.79
2019-05-29T17:48:10.075Z,2.07
2019-05-29T17:49:49.388Z,2.24
2019-05-29T17:51:29.393Z,2.3
2019-05-29T17:53:09.115Z,1.56
2019-05-29T17:54:49.522Z,1.5
2019-05-29T17:56:38.878Z,1.87
2019-05-29T17:58:21.061Z,2.1
2019-05-29T18:00:02.783Z,1.58
2019-05-29T18:01:44.622Z,1.54
2019-05-29T18:03:24.237Z,1.53
2019-05-29T18:05:11.363Z,1.6
2019-05-29T18:06:59.968Z,2.2
2019-05-29T18:08:39.341Z,1.46
2019-05-29T18:10:25.573Z,1.53
2019-05-29T18:12:05.032Z,1.68
2019-05-29T18:13:44.380Z,2.24
2019-05-29T18:17:06.865Z,1.73
2019-05-29T18:18:46.278Z,2.43
2019-05-29T18:20:27.840Z,2.95
2019-05-29T18:22:11.900Z,1.69
2019-05-29T18:23:54.998Z,1.64
2019-05-29T18:25:34.398Z,2.33
2019-05-29T18:28:53.458Z,1.77
2019-05-29T18:30:32.784Z,1.53
2019-05-29T18:32:12.090Z,1.52
2019-05-29T18:33:51.781Z,1.51
2019-05-29T18:35:32.357Z,1.73
2019-05-29T18:37:11.641Z,1.36
2019-05-29T18:38:50.966Z,1.54
2019-05-29T18:40:32.537Z,1.61
2019-05-29T18:42:12.156Z,1.92
2019-05-29T18:43:51.585Z,1.64
2019-05-29T18:45:33.125Z,2.09
2019-05-29T18:47:12.727Z,2.06
2019-05-29T18:48:52.075Z,1.85
2019-05-29T18:50:34.548Z,1.86
2019-05-29T18:52:13.910Z,1.87
2019-05-29T18:53:53.229Z,1.74
2019-05-29T18:55:33.114Z,1.85
2019-05-29T18:58:58.068Z,1.82
2019-05-29T19:00:37.463Z,1.82
2019-05-29T19:02:16.848Z,1.87
2019-05-29T19:03:56.167Z,1.99
2019-05-29T19:05:35.611Z,1.72
2019-05-29T19:07:14.894Z,1.66
2019-05-29T19:08:54.202Z,1.75
2019-05-29T19:10:33.519Z,1.56
2019-05-29T19:12:14.353Z,1.7
2019-05-29T19:13:53.629Z,1.63
2019-05-29T19:15:33.136Z,1.83
2019-05-29T19:17:12.773Z,1.87
2019-05-29T19:18:52.184Z,1.94
2019-05-29T19:20:32.527Z,1.77
2019-05-29T19:22:12.000Z,1.86
2019-05-29T19:23:51.294Z,1.81
2019-05-29T19:27:42.842Z,2.05
2019-05-29T19:31:11.955Z,1.91
2019-05-29T19:32:51.431Z,1.74
2019-05-29T19:34:31.551Z,1.74
2019-05-29T19:36:11.482Z,1.56
2019-05-29T19:37:50.890Z,1.79
2019-05-29T19:41:09.902Z,1.77
2019-05-29T19:42:49.295Z,1.83
2019-05-29T19:46:16.327Z,1.87
2019-05-29T19:47:55.689Z,1.95
2019-05-29T19:49:37.060Z,1.84
2019-05-29T19:51:16.360Z,2.04
2019-05-29T19:52:55.699Z,2.09
2019-05-29T19:54:35.692Z,1.99
2019-05-29T19:56:15.332Z,1.92
2019-05-29T19:57:59.494Z,2.11
2019-05-29T19:59:39.602Z,2.03
2019-05-29T20:01:40.734Z,2.05
2019-05-29T20:03:28.311Z,2.24
2019-05-29T20:05:08.155Z,2.61
2019-05-29T20:06:47.532Z,2.65
2019-05-29T20:08:27.086Z,2.24
2019-05-29T20:10:11.097Z,2.17
2019-05-29T20:11:50.490Z,2.21
2019-05-29T20:15:12.491Z,2.03
2019-05-29T20:16:51.860Z,1.94
2019-05-29T20:18:32.049Z,1.81
2019-05-29T20:20:12.042Z,1.97
2019-05-29T20:21:51.368Z,1.91
2019-05-29T20:25:13.524Z,1.96
2019-05-29T20:26:53.199Z,1.95
2019-05-29T20:28:34.169Z,2.06
2019-05-29T20:30:14.151Z,1.94
2019-05-29T20:31:53.422Z,2.06
2019-05-29T20:33:34.513Z,2.12
2019-05-29T20:35:14.530Z,2.2
2019-05-29T20:36:53.863Z,2.27
2019-05-29T20:38:33.097Z,2.23
2019-05-29T20:40:13.054Z,2.25
2019-05-29T20:41:52.440Z,2.37
2019-05-29T20:43:33.447Z,2.38
2019-05-29T20:45:13.361Z,2.49
2019-05-29T20:46:52.728Z,2.61
2019-05-29T20:48:32.503Z,2.45
2019-05-29T20:50:12.515Z,2.45
2019-05-29T20:51:51.859Z,2.47
2019-05-29T20:53:33.417Z,2.39
2019-05-29T20:55:13.177Z,2.11
2019-05-29T20:56:52.523Z,2.28
2019-05-29T20:58:33.735Z,2.44
2019-05-29T21:00:13.513Z,2.4
2019-05-29T21:01:52.897Z,2.33
2019-05-29T21:03:32.327Z,2.43
2019-05-29T21:05:18.004Z,2.52
2019-05-29T21:06:57.348Z,2.46
2019-05-29T21:08:38.904Z,2.56
2019-05-29T21:10:19.045Z,2.71
2019-05-29T21:11:58.384Z,2.6
2019-05-29T21:13:39.428Z,2.69
2019-05-29T21:15:19.490Z,2.73
2019-05-29T21:16:58.894Z,2.72
2019-05-29T21:18:39.905Z,2.75
2019-05-29T21:20:20.103Z,2.62
2019-05-29T21:21:59.524Z,2.81
2019-05-29T21:23:40.425Z,2.87
2019-05-29T21:25:22.707Z,2.84
2019-05-29T21:27:02.129Z,2.75
2019-05-29T21:28:52.052Z,3.07
2019-05-29T21:30:31.454Z,2.82
2019-05-29T21:32:10.856Z,2.78
2019-05-29T21:33:52.656Z,2.82
2019-05-29T21:35:32.053Z,2.88
2019-05-29T21:37:11.396Z,2.82
2019-05-29T21:38:50.719Z,2.78
2019-05-29T21:40:30.029Z,2.84
2019-05-29T21:42:09.331Z,2.78
2019-05-29T21:43:50.169Z,2.79
2019-05-29T21:45:29.524Z,2.76
2019-05-29T21:47:08.853Z,2.64
2019-05-29T21:50:34.351Z,2.85
2019-05-29T21:52:15.036Z,2.48
2019-05-29T21:53:54.372Z,2.64
2019-05-29T21:55:33.829Z,2.58
2019-05-29T21:57:13.178Z,2.61
2019-05-29T21:59:06.777Z,2.58
2019-05-29T22:00:50.969Z,2.68
2019-05-29T22:02:30.345Z,2.5
2019-05-29T22:04:09.795Z,2.47
2019-05-29T22:07:34.165Z,2.7
2019-05-29T22:09:13.558Z,2.52
2019-05-29T22:12:36.512Z,2.77
2019-05-29T22:14:15.902Z,2.53
2019-05-29T22:15:56.850Z,2.56
2019-05-29T22:17:36.682Z,2.82
2019-05-29T22:19:16.074Z,2.65
2019-05-29T22:20:59.638Z,2.86
2019-05-29T22:22:48.545Z,2.84
2019-05-29T22:24:28.957Z,2.64
2019-05-29T22:26:08.296Z,2.8
2019-05-29T22:27:47.757Z,2.84
2019-05-29T22:29:27.140Z,2.83
2019-05-29T22:31:06.576Z,2.69
2019-05-29T22:32:45.958Z,2.69
2019-05-29T22:34:26.288Z,2.95
2019-05-29T22:36:05.667Z,2.67
2019-05-29T22:37:44.907Z,2.6
2019-05-29T22:39:24.297Z,2.69
2019-05-29T22:41:05.094Z,2.65
2019-05-29T22:42:44.489Z,2.59
2019-05-29T22:44:23.895Z,2.67
2019-05-29T22:47:48.886Z,2.88
2019-05-29T22:49:29.617Z,2.73
2019-05-29T22:51:08.949Z,2.73
2019-05-29T22:52:48.292Z,2.82
2019-05-29T22:54:27.652Z,2.78
2019-05-29T22:56:07.099Z,2.7
2019-05-29T22:57:46.540Z,2.99
2019-05-29T22:59:35.320Z,2.92
2019-05-29T23:01:14.791Z,3.01
2019-05-29T23:02:56.096Z,2.95
2019-05-29T23:04:35.954Z,2.82
2019-05-29T23:06:15.461Z,2.85
2019-05-29T23:07:56.081Z,2.95
2019-05-29T23:09:36.012Z,2.94
2019-05-29T23:11:15.400Z,3.1
2019-05-29T23:12:58.506Z,3.15
2019-05-29T23:14:43.543Z,3.25
2019-05-29T23:16:22.967Z,3.02
2019-05-29T23:18:04.485Z,3.19
2019-05-29T23:19:43.855Z,3.3
2019-05-29T23:21:23.173Z,3.24
2019-05-29T23:24:45.954Z,3.61
2019-05-29T23:26:25.298Z,3.33
2019-05-29T23:28:04.895Z,3.27
2019-05-29T23:29:52.714Z,3.33
2019-05-29T23:31:32.051Z,3.27
2019-05-29T23:33:11.426Z,3.35
2019-05-29T23:34:50.818Z,3.46
2019-05-29T23:36:30.859Z,3.54
2019-05-29T23:38:10.231Z,3.76
2019-05-29T23:39:49.574Z,3.54
2019-05-29T23:41:28.879Z,3.55
2019-05-29T23:43:08.155Z,3.42
2019-05-29T23:44:47.555Z,3.67
2019-05-29T23:46:29.955Z,3.57
2019-05-29T23:48:09.259Z,3.63
2019-05-29T23:49:48.616Z,3.54
2019-05-29T23:51:27.943Z,3.5
2019-05-29T23:53:07.294Z,3.45
2019-05-29T23:54:46.655Z,3.51
2019-05-29T23:56:25.955Z,3.51
2019-05-29T23:58:09.787Z,3.69
